Terminal Aerodrome Forecast
Issued by NWS

Home | Current Version | Previous Version | Text Only | Print | Product List | Glossary On
Versions: 1 2 3 4 5 6 7 8 9 10 11 12 13 14 15 16 17 18 19 20 21 22 23 24 25 26 27 28 29 30 31 32 33 34
000
FTUS44 KFWD 201623 AAC
TAFGKY
TAF AMD
KGKY 201623Z 2016/2112 16015KT P6SM BKN025
     FM201730 17016G26KT P6SM VCTS OVC015CB
      TEMPO 2018/2020 3SM +TSRA OVC015CB
     FM202000 18018KT 6SM -SHRA VCTS OVC022CB
     FM210000 36016KT 4SM -SHRA BR BKN015
     FM210800 35015KT P6SM -SHRA VCTS BKN015 OVC025CB=

USA.gov is the U.S. government's official web portal to all federal, state and local government web resources and services.